KGCC/GCC METAR and TAF weather

Enter ICAO airport designator
Station Type Date Time Source
KGCC METAR 2020/04/05 19:53 UTC NOAA

KGCC 051953Z AUTO 23013G25KT 10SM CLR 17/M02 A2962 RMK AO2 PK WND 19029/1908 SLP012 T01721017


Station Type Date Time Source
KGCC Decoded METAR 2020/04/05 19:53 UTC NOAA

GILLETTE-CAMPBELL CTY AIRPORT , WY, United States (KGCC) 44-20N 105-33W 1320M
Apr 05, 2020 - 03:53 PM EDT / 2020.04.05 1953 UTC
Wind: from the SW (230 degrees) at 15 MPH (13 KT) gusting to 29 MPH (25 KT):0
Visibility: 10 mile(s):0
Sky conditions: clear
Temperature: 63.0 F (17.2 C)
Dew Point: 28.9 F (-1.7 C)
Relative Humidity: 27%
Pressure (altimeter): 29.62 in. Hg (1003 hPa)
ob: KGCC 051953Z AUTO 23013G25KT 10SM CLR 17/M02 A2962 RMK AO2 PK WND 19029/1908 SLP012 T01721017
cycle: 20

Station Type Date Time Source
KGCC TAF 2020/04/05 21:36 UTC NOAA

TAF
AMD KGCC 052035Z 0521/0618 22015G23KT P6SM SCT150
FM060200 22016KT P6SM SCT150 OVC250

Example: see airport list